sensor_id;sensor_type;location;lat;lon;timestamp;temperature;humidity
45803;DHT22;31504;51.716;9.184;2022-12-10T00:00:26;19.70;44.00
45803;DHT22;31504;51.716;9.184;2022-12-10T00:03:26;19.70;44.00
45803;DHT22;31504;51.716;9.184;2022-12-10T00:06:28;19.70;43.90
45803;DHT22;31504;51.716;9.184;2022-12-10T00:09:29;19.70;43.80
45803;DHT22;31504;51.716;9.184;2022-12-10T00:12:29;19.70;43.70
45803;DHT22;31504;51.716;9.184;2022-12-10T00:15:29;19.70;43.60
45803;DHT22;31504;51.716;9.184;2022-12-10T00:18:30;19.70;43.60
45803;DHT22;31504;51.716;9.184;2022-12-10T00:21:32;19.60;43.50
45803;DHT22;31504;51.716;9.184;2022-12-10T00:24:32;19.70;43.60
45803;DHT22;31504;51.716;9.184;2022-12-10T00:27:33;19.70;43.50
45803;DHT22;31504;51.716;9.184;2022-12-10T00:30:33;19.60;43.40
45803;DHT22;31504;51.716;9.184;2022-12-10T00:33:34;19.60;43.40
45803;DHT22;31504;51.716;9.184;2022-12-10T00:36:37;19.70;43.30
45803;DHT22;31504;51.716;9.184;2022-12-10T00:39:37;19.60;43.20
45803;DHT22;31504;51.716;9.184;2022-12-10T00:42:38;19.70;43.20
45803;DHT22;31504;51.716;9.184;2022-12-10T00:45:38;19.70;43.20
45803;DHT22;31504;51.716;9.184;2022-12-10T00:48:39;19.60;43.10
45803;DHT22;31504;51.716;9.184;2022-12-10T00:51:39;19.60;43.10
45803;DHT22;31504;51.716;9.184;2022-12-10T00:54:40;19.60;43.10
45803;DHT22;31504;51.716;9.184;2022-12-10T00:57:41;19.60;43.00
45803;DHT22;31504;51.716;9.184;2022-12-10T01:00:41;19.60;43.00
45803;DHT22;31504;51.716;9.184;2022-12-10T01:03:42;19.60;42.90
45803;DHT22;31504;51.716;9.184;2022-12-10T01:06:52;19.60;42.90
45803;DHT22;31504;51.716;9.184;2022-12-10T01:09:53;19.60;42.80
45803;DHT22;31504;51.716;9.184;2022-12-10T01:12:53;19.60;42.80
45803;DHT22;31504;51.716;9.184;2022-12-10T01:15:54;19.60;42.60
45803;DHT22;31504;51.716;9.184;2022-12-10T01:18:55;19.60;42.70
45803;DHT22;31504;51.716;9.184;2022-12-10T01:21:56;19.60;42.60
45803;DHT22;31504;51.716;9.184;2022-12-10T01:24:57;19.60;42.60
45803;DHT22;31504;51.716;9.184;2022-12-10T01:27:57;19.60;42.50
45803;DHT22;31504;51.716;9.184;2022-12-10T01:31:05;19.60;42.40
45803;DHT22;31504;51.716;9.184;2022-12-10T01:34:07;19.60;42.30
45803;DHT22;31504;51.716;9.184;2022-12-10T01:37:08;19.60;42.50
45803;DHT22;31504;51.716;9.184;2022-12-10T01:40:08;19.60;42.40
45803;DHT22;31504;51.716;9.184;2022-12-10T01:43:12;19.60;42.30
45803;DHT22;31504;51.716;9.184;2022-12-10T01:46:13;19.60;42.20
45803;DHT22;31504;51.716;9.184;2022-12-10T01:52:17;19.60;42.10
45803;DHT22;31504;51.716;9.184;2022-12-10T01:55:38;19.60;42.10
45803;DHT22;31504;51.716;9.184;2022-12-10T01:58:39;19.60;42.00
45803;DHT22;31504;51.716;9.184;2022-12-10T02:01:43;19.60;42.00
45803;DHT22;31504;51.716;9.184;2022-12-10T02:07:54;19.60;42.00
45803;DHT22;31504;51.716;9.184;2022-12-10T02:14:28;19.60;41.90
45803;DHT22;31504;51.716;9.184;2022-12-10T02:17:27;19.60;41.80
45803;DHT22;31504;51.716;9.184;2022-12-10T02:20:31;19.60;41.80
45803;DHT22;31504;51.716;9.184;2022-12-10T02:23:36;19.60;41.80
45803;DHT22;31504;51.716;9.184;2022-12-10T02:29:57;19.60;41.70
45803;DHT22;31504;51.716;9.184;2022-12-10T02:32:58;19.60;41.60
45803;DHT22;31504;51.716;9.184;2022-12-10T02:35:59;19.60;41.60
45803;DHT22;31504;51.716;9.184;2022-12-10T02:39:01;19.60;41.60
45803;DHT22;31504;51.716;9.184;2022-12-10T02:42:01;19.50;41.40
45803;DHT22;31504;51.716;9.184;2022-12-10T02:45:02;19.50;41.50
45803;DHT22;31504;51.716;9.184;2022-12-10T02:48:03;19.50;41.40
45803;DHT22;31504;51.716;9.184;2022-12-10T02:51:04;19.60;41.30
45803;DHT22;31504;51.716;9.184;2022-12-10T02:54:06;19.60;41.30
45803;DHT22;31504;51.716;9.184;2022-12-10T03:00:49;19.50;41.30
45803;DHT22;31504;51.716;9.184;2022-12-10T03:04:10;19.50;41.20
45803;DHT22;31504;51.716;9.184;2022-12-10T03:07:17;19.50;41.10
45803;DHT22;31504;51.716;9.184;2022-12-10T03:10:35;19.60;41.10
45803;DHT22;31504;51.716;9.184;2022-12-10T03:13:39;19.50;41.00
45803;DHT22;31504;51.716;9.184;2022-12-10T03:16:45;19.50;41.00
45803;DHT22;31504;51.716;9.184;2022-12-10T03:19:47;19.60;41.00
45803;DHT22;31504;51.716;9.184;2022-12-10T03:22:48;19.50;41.00
45803;DHT22;31504;51.716;9.184;2022-12-10T03:25:49;19.50;41.00
45803;DHT22;31504;51.716;9.184;2022-12-10T03:28:50;19.50;40.90
45803;DHT22;31504;51.716;9.184;2022-12-10T03:31:52;19.50;40.90
45803;DHT22;31504;51.716;9.184;2022-12-10T03:34:54;19.50;40.80
45803;DHT22;31504;51.716;9.184;2022-12-10T03:37:55;19.50;40.80
45803;DHT22;31504;51.716;9.184;2022-12-10T03:40:56;19.50;40.80
45803;DHT22;31504;51.716;9.184;2022-12-10T03:43:57;19.50;40.70
45803;DHT22;31504;51.716;9.184;2022-12-10T03:46:58;19.50;40.70
45803;DHT22;31504;51.716;9.184;2022-12-10T03:49:58;19.50;40.70
45803;DHT22;31504;51.716;9.184;2022-12-10T03:52:59;19.50;40.70
45803;DHT22;31504;51.716;9.184;2022-12-10T03:55:59;19.50;40.60
45803;DHT22;31504;51.716;9.184;2022-12-10T03:59:00;19.50;40.70
45803;DHT22;31504;51.716;9.184;2022-12-10T04:02:00;19.50;40.60
45803;DHT22;31504;51.716;9.184;2022-12-10T04:05:01;19.50;40.60
45803;DHT22;31504;51.716;9.184;2022-12-10T04:08:01;19.50;40.60
45803;DHT22;31504;51.716;9.184;2022-12-10T04:11:02;19.50;40.50
45803;DHT22;31504;51.716;9.184;2022-12-10T04:14:03;19.50;40.50
45803;DHT22;31504;51.716;9.184;2022-12-10T04:17:22;19.50;40.50
45803;DHT22;31504;51.716;9.184;2022-12-10T04:20:23;19.50;40.50
45803;DHT22;31504;51.716;9.184;2022-12-10T04:23:42;19.50;40.40
45803;DHT22;31504;51.716;9.184;2022-12-10T04:27:03;19.50;40.40
45803;DHT22;31504;51.716;9.184;2022-12-10T04:30:08;19.50;40.40
45803;DHT22;31504;51.716;9.184;2022-12-10T04:33:09;19.50;40.30
45803;DHT22;31504;51.716;9.184;2022-12-10T04:36:09;19.50;40.30
45803;DHT22;31504;51.716;9.184;2022-12-10T04:39:10;19.50;40.40
45803;DHT22;31504;51.716;9.184;2022-12-10T04:42:14;19.50;40.40
45803;DHT22;31504;51.716;9.184;2022-12-10T04:45:14;19.50;40.30
45803;DHT22;31504;51.716;9.184;2022-12-10T04:48:15;19.50;40.30
45803;DHT22;31504;51.716;9.184;2022-12-10T04:51:15;19.50;40.30
45803;DHT22;31504;51.716;9.184;2022-12-10T04:54:16;19.50;40.20
45803;DHT22;31504;51.716;9.184;2022-12-10T04:57:16;19.50;40.20
45803;DHT22;31504;51.716;9.184;2022-12-10T05:00:16;19.50;40.20
45803;DHT22;31504;51.716;9.184;2022-12-10T05:03:17;19.50;40.30
45803;DHT22;31504;51.716;9.184;2022-12-10T05:06:18;19.50;40.20
45803;DHT22;31504;51.716;9.184;2022-12-10T05:09:18;19.50;40.20
45803;DHT22;31504;51.716;9.184;2022-12-10T05:12:19;19.50;40.10
45803;DHT22;31504;51.716;9.184;2022-12-10T05:15:19;19.50;40.20
45803;DHT22;31504;51.716;9.184;2022-12-10T05:18:20;19.40;40.00
45803;DHT22;31504;51.716;9.184;2022-12-10T05:21:20;19.50;40.10
45803;DHT22;31504;51.716;9.184;2022-12-10T05:24:22;19.50;40.10
45803;DHT22;31504;51.716;9.184;2022-12-10T05:27:22;19.50;40.00
45803;DHT22;31504;51.716;9.184;2022-12-10T05:30:23;19.50;40.00
45803;DHT22;31504;51.716;9.184;2022-12-10T05:33:24;19.50;40.10
45803;DHT22;31504;51.716;9.184;2022-12-10T05:36:25;19.50;40.20
45803;DHT22;31504;51.716;9.184;2022-12-10T05:39:26;19.40;40.10
45803;DHT22;31504;51.716;9.184;2022-12-10T05:42:27;19.50;40.00
45803;DHT22;31504;51.716;9.184;2022-12-10T05:45:28;19.50;40.00
45803;DHT22;31504;51.716;9.184;2022-12-10T05:48:28;19.50;40.10
45803;DHT22;31504;51.716;9.184;2022-12-10T05:51:30;19.50;40.10
45803;DHT22;31504;51.716;9.184;2022-12-10T05:54:31;19.50;40.10
45803;DHT22;31504;51.716;9.184;2022-12-10T05:57:31;19.50;40.10
45803;DHT22;31504;51.716;9.184;2022-12-10T06:00:31;19.40;40.10
45803;DHT22;31504;51.716;9.184;2022-12-10T06:03:32;19.40;40.20
45803;DHT22;31504;51.716;9.184;2022-12-10T06:06:34;19.40;40.20
45803;DHT22;31504;51.716;9.184;2022-12-10T06:09:34;19.40;40.10
45803;DHT22;31504;51.716;9.184;2022-12-10T06:12:35;19.50;40.20
45803;DHT22;31504;51.716;9.184;2022-12-10T06:15:37;19.40;40.20
45803;DHT22;31504;51.716;9.184;2022-12-10T06:18:38;19.50;40.20
45803;DHT22;31504;51.716;9.184;2022-12-10T06:21:39;19.40;40.10
45803;DHT22;31504;51.716;9.184;2022-12-10T06:24:39;19.40;40.20
45803;DHT22;31504;51.716;9.184;2022-12-10T06:27:40;19.40;40.70
45803;DHT22;31504;51.716;9.184;2022-12-10T06:30:40;19.40;39.90
45803;DHT22;31504;51.716;9.184;2022-12-10T06:33:41;19.40;39.90
45803;DHT22;31504;51.716;9.184;2022-12-10T06:36:42;19.50;40.00
45803;DHT22;31504;51.716;9.184;2022-12-10T06:39:42;19.50;40.00
45803;DHT22;31504;51.716;9.184;2022-12-10T06:42:43;19.40;39.90
45803;DHT22;31504;51.716;9.184;2022-12-10T06:45:43;19.40;39.90
45803;DHT22;31504;51.716;9.184;2022-12-10T06:48:44;19.40;39.90
45803;DHT22;31504;51.716;9.184;2022-12-10T06:51:44;19.40;39.90
45803;DHT22;31504;51.716;9.184;2022-12-10T06:54:47;19.40;39.90
45803;DHT22;31504;51.716;9.184;2022-12-10T06:57:50;19.40;39.90
45803;DHT22;31504;51.716;9.184;2022-12-10T07:00:51;19.50;39.90
45803;DHT22;31504;51.716;9.184;2022-12-10T07:03:52;19.40;39.90
45803;DHT22;31504;51.716;9.184;2022-12-10T07:06:52;19.50;40.00
45803;DHT22;31504;51.716;9.184;2022-12-10T07:09:53;19.40;39.90
45803;DHT22;31504;51.716;9.184;2022-12-10T07:12:53;19.40;39.90
45803;DHT22;31504;51.716;9.184;2022-12-10T07:15:54;19.40;39.80
45803;DHT22;31504;51.716;9.184;2022-12-10T07:18:55;19.40;39.90
45803;DHT22;31504;51.716;9.184;2022-12-10T07:21:56;19.40;39.70
45803;DHT22;31504;51.716;9.184;2022-12-10T07:24:56;19.40;39.80
45803;DHT22;31504;51.716;9.184;2022-12-10T07:27:57;19.40;39.70
45803;DHT22;31504;51.716;9.184;2022-12-10T07:31:01;19.40;39.70
45803;DHT22;31504;51.716;9.184;2022-12-10T07:34:01;19.40;39.90
45803;DHT22;31504;51.716;9.184;2022-12-10T07:37:02;19.50;40.00
45803;DHT22;31504;51.716;9.184;2022-12-10T07:40:02;19.50;40.00
45803;DHT22;31504;51.716;9.184;2022-12-10T07:43:03;19.50;40.10
45803;DHT22;31504;51.716;9.184;2022-12-10T07:46:07;19.50;40.20
45803;DHT22;31504;51.716;9.184;2022-12-10T07:49:08;19.50;40.40
45803;DHT22;31504;51.716;9.184;2022-12-10T07:52:08;19.50;40.50
45803;DHT22;31504;51.716;9.184;2022-12-10T07:55:09;19.40;40.40
45803;DHT22;31504;51.716;9.184;2022-12-10T07:58:09;19.50;40.50
45803;DHT22;31504;51.716;9.184;2022-12-10T08:01:11;19.50;40.60
45803;DHT22;31504;51.716;9.184;2022-12-10T08:04:11;19.50;40.60
45803;DHT22;31504;51.716;9.184;2022-12-10T08:07:12;19.50;40.60
45803;DHT22;31504;51.716;9.184;2022-12-10T08:10:12;19.50;40.70
45803;DHT22;31504;51.716;9.184;2022-12-10T08:13:13;19.50;40.70
45803;DHT22;31504;51.716;9.184;2022-12-10T08:16:22;19.50;40.70
45803;DHT22;31504;51.716;9.184;2022-12-10T08:19:25;19.50;40.70
45803;DHT22;31504;51.716;9.184;2022-12-10T08:22:25;19.50;40.60
45803;DHT22;31504;51.716;9.184;2022-12-10T08:25:26;19.50;40.60
45803;DHT22;31504;51.716;9.184;2022-12-10T08:28:26;19.50;40.60
45803;DHT22;31504;51.716;9.184;2022-12-10T08:31:27;19.50;40.60
45803;DHT22;31504;51.716;9.184;2022-12-10T08:34:28;19.50;40.70
45803;DHT22;31504;51.716;9.184;2022-12-10T08:37:28;19.50;40.60
45803;DHT22;31504;51.716;9.184;2022-12-10T08:40:29;19.50;40.60
45803;DHT22;31504;51.716;9.184;2022-12-10T08:43:29;19.50;40.60
45803;DHT22;31504;51.716;9.184;2022-12-10T08:46:30;19.50;40.60
45803;DHT22;31504;51.716;9.184;2022-12-10T08:49:30;19.50;40.50
45803;DHT22;31504;51.716;9.184;2022-12-10T08:52:30;19.50;40.50
45803;DHT22;31504;51.716;9.184;2022-12-10T08:55:31;19.50;40.50
45803;DHT22;31504;51.716;9.184;2022-12-10T08:58:31;19.50;40.50
45803;DHT22;31504;51.716;9.184;2022-12-10T09:01:32;19.50;40.50
45803;DHT22;31504;51.716;9.184;2022-12-10T09:04:32;19.50;40.50
45803;DHT22;31504;51.716;9.184;2022-12-10T09:07:33;19.50;40.50
45803;DHT22;31504;51.716;9.184;2022-12-10T09:10:35;19.50;40.40
45803;DHT22;31504;51.716;9.184;2022-12-10T09:13:35;19.50;40.40
45803;DHT22;31504;51.716;9.184;2022-12-10T09:16:36;19.50;40.40
45803;DHT22;31504;51.716;9.184;2022-12-10T09:19:37;19.40;40.40
45803;DHT22;31504;51.716;9.184;2022-12-10T09:22:37;19.50;40.40
45803;DHT22;31504;51.716;9.184;2022-12-10T09:25:38;19.50;40.30
45803;DHT22;31504;51.716;9.184;2022-12-10T09:28:38;19.50;40.20
45803;DHT22;31504;51.716;9.184;2022-12-10T09:31:39;19.50;40.20
45803;DHT22;31504;51.716;9.184;2022-12-10T09:34:39;19.50;40.10
45803;DHT22;31504;51.716;9.184;2022-12-10T09:37:40;19.50;40.00
45803;DHT22;31504;51.716;9.184;2022-12-10T09:47:13;19.40;39.90
45803;DHT22;31504;51.716;9.184;2022-12-10T09:50:23;19.40;39.80
45803;DHT22;31504;51.716;9.184;2022-12-10T09:53:26;19.40;40.30
45803;DHT22;31504;51.716;9.184;2022-12-10T09:56:30;19.40;39.60
45803;DHT22;31504;51.716;9.184;2022-12-10T10:02:34;19.40;39.70
45803;DHT22;31504;51.716;9.184;2022-12-10T10:05:35;19.40;39.40
45803;DHT22;31504;51.716;9.184;2022-12-10T10:08:46;19.40;39.20
45803;DHT22;31504;51.716;9.184;2022-12-10T10:11:47;19.40;39.20
45803;DHT22;31504;51.716;9.184;2022-12-10T10:14:48;19.40;39.10
45803;DHT22;31504;51.716;9.184;2022-12-10T10:17:49;19.40;39.10
45803;DHT22;31504;51.716;9.184;2022-12-10T10:20:52;19.40;39.10
45803;DHT22;31504;51.716;9.184;2022-12-10T10:23:53;19.40;39.10
45803;DHT22;31504;51.716;9.184;2022-12-10T10:26:57;19.40;39.00
45803;DHT22;31504;51.716;9.184;2022-12-10T10:29:59;19.40;39.00
45803;DHT22;31504;51.716;9.184;2022-12-10T10:33:01;19.40;39.00
45803;DHT22;31504;51.716;9.184;2022-12-10T10:36:07;19.40;38.90
45803;DHT22;31504;51.716;9.184;2022-12-10T10:42:25;19.40;38.90
45803;DHT22;31504;51.716;9.184;2022-12-10T10:45:38;19.40;38.80
45803;DHT22;31504;51.716;9.184;2022-12-10T10:48:39;19.40;38.80
45803;DHT22;31504;51.716;9.184;2022-12-10T10:51:43;19.40;38.80
45803;DHT22;31504;51.716;9.184;2022-12-10T10:54:46;19.40;38.80
45803;DHT22;31504;51.716;9.184;2022-12-10T10:57:47;19.40;38.80
45803;DHT22;31504;51.716;9.184;2022-12-10T11:03:56;19.40;38.70
45803;DHT22;31504;51.716;9.184;2022-12-10T11:06:59;19.40;38.70
45803;DHT22;31504;51.716;9.184;2022-12-10T11:10:00;19.40;38.60
45803;DHT22;31504;51.716;9.184;2022-12-10T11:16:18;19.40;38.50
45803;DHT22;31504;51.716;9.184;2022-12-10T11:19:21;19.40;38.50
45803;DHT22;31504;51.716;9.184;2022-12-10T11:22:24;19.40;38.50
45803;DHT22;31504;51.716;9.184;2022-12-10T11:32:21;19.40;38.40
45803;DHT22;31504;51.716;9.184;2022-12-10T11:44:54;19.30;38.40
45803;DHT22;31504;51.716;9.184;2022-12-10T12:00:41;19.30;38.10
45803;DHT22;31504;51.716;9.184;2022-12-10T12:07:09;19.30;38.00
45803;DHT22;31504;51.716;9.184;2022-12-10T12:13:38;19.30;38.00
45803;DHT22;31504;51.716;9.184;2022-12-10T12:16:46;19.30;37.90
45803;DHT22;31504;51.716;9.184;2022-12-10T12:19:51;19.30;37.90
45803;DHT22;31504;51.716;9.184;2022-12-10T12:22:58;19.30;37.80
45803;DHT22;31504;51.716;9.184;2022-12-10T12:26:02;19.40;37.90
45803;DHT22;31504;51.716;9.184;2022-12-10T12:29:18;19.30;37.80
45803;DHT22;31504;51.716;9.184;2022-12-10T12:36:00;19.30;37.80
45803;DHT22;31504;51.716;9.184;2022-12-10T12:45:39;19.30;37.80
45803;DHT22;31504;51.716;9.184;2022-12-10T12:51:54;19.40;37.90
45803;DHT22;31504;51.716;9.184;2022-12-10T12:54:57;19.40;38.70
45803;DHT22;31504;51.716;9.184;2022-12-10T13:01:37;19.40;38.20
45803;DHT22;31504;51.716;9.184;2022-12-10T13:04:40;19.40;38.30
45803;DHT22;31504;51.716;9.184;2022-12-10T13:07:40;19.40;38.30
45803;DHT22;31504;51.716;9.184;2022-12-10T13:10:45;19.40;38.40
45803;DHT22;31504;51.716;9.184;2022-12-10T13:17:24;19.50;39.20
45803;DHT22;31504;51.716;9.184;2022-12-10T13:23:29;19.40;38.80
45803;DHT22;31504;51.716;9.184;2022-12-10T13:26:30;19.50;39.10
45803;DHT22;31504;51.716;9.184;2022-12-10T13:29:44;19.40;39.10
45803;DHT22;31504;51.716;9.184;2022-12-10T13:32:46;19.50;39.10
45803;DHT22;31504;51.716;9.184;2022-12-10T13:39:21;19.50;39.10
45803;DHT22;31504;51.716;9.184;2022-12-10T13:42:27;19.50;39.00
45803;DHT22;31504;51.716;9.184;2022-12-10T13:45:46;19.40;39.20
45803;DHT22;31504;51.716;9.184;2022-12-10T13:48:47;19.40;39.30
45803;DHT22;31504;51.716;9.184;2022-12-10T13:51:55;19.50;39.20
45803;DHT22;31504;51.716;9.184;2022-12-10T13:55:07;19.50;39.10
45803;DHT22;31504;51.716;9.184;2022-12-10T14:07:47;19.50;39.10
45803;DHT22;31504;51.716;9.184;2022-12-10T14:10:49;19.50;39.00
45803;DHT22;31504;51.716;9.184;2022-12-10T14:13:51;19.50;39.10
45803;DHT22;31504;51.716;9.184;2022-12-10T14:16:53;19.50;39.00
45803;DHT22;31504;51.716;9.184;2022-12-10T14:19:53;19.50;39.00
45803;DHT22;31504;51.716;9.184;2022-12-10T14:22:54;19.50;39.00
45803;DHT22;31504;51.716;9.184;2022-12-10T14:26:19;19.50;38.90
45803;DHT22;31504;51.716;9.184;2022-12-10T14:29:20;19.50;39.00
45803;DHT22;31504;51.716;9.184;2022-12-10T14:32:25;19.40;39.00
45803;DHT22;31504;51.716;9.184;2022-12-10T14:35:27;19.40;39.30
45803;DHT22;31504;51.716;9.184;2022-12-10T14:38:32;19.40;39.20
45803;DHT22;31504;51.716;9.184;2022-12-10T14:41:33;19.50;39.20
45803;DHT22;31504;51.716;9.184;2022-12-10T14:44:34;19.50;39.30
45803;DHT22;31504;51.716;9.184;2022-12-10T14:47:37;19.40;39.10
45803;DHT22;31504;51.716;9.184;2022-12-10T14:50:38;19.40;39.10
45803;DHT22;31504;51.716;9.184;2022-12-10T14:53:39;19.50;39.10
45803;DHT22;31504;51.716;9.184;2022-12-10T14:56:39;19.50;39.10
45803;DHT22;31504;51.716;9.184;2022-12-10T15:02:48;19.50;39.10
45803;DHT22;31504;51.716;9.184;2022-12-10T15:05:55;19.50;39.10
45803;DHT22;31504;51.716;9.184;2022-12-10T15:08:57;19.50;39.10
45803;DHT22;31504;51.716;9.184;2022-12-10T15:11:59;19.50;39.70
45803;DHT22;31504;51.716;9.184;2022-12-10T15:15:02;19.50;39.20
45803;DHT22;31504;51.716;9.184;2022-12-10T15:24:13;19.50;39.60
45803;DHT22;31504;51.716;9.184;2022-12-10T15:27:18;19.50;39.70
45803;DHT22;31504;51.716;9.184;2022-12-10T15:30:32;19.50;39.80
45803;DHT22;31504;51.716;9.184;2022-12-10T15:33:36;19.50;40.00
45803;DHT22;31504;51.716;9.184;2022-12-10T15:36:38;19.50;40.20
45803;DHT22;31504;51.716;9.184;2022-12-10T15:39:44;19.50;40.30
45803;DHT22;31504;51.716;9.184;2022-12-10T15:42:44;19.50;40.30
45803;DHT22;31504;51.716;9.184;2022-12-10T15:45:48;19.50;40.40
45803;DHT22;31504;51.716;9.184;2022-12-10T15:48:49;19.50;40.30
45803;DHT22;31504;51.716;9.184;2022-12-10T15:51:49;19.50;40.40
45803;DHT22;31504;51.716;9.184;2022-12-10T15:54:51;19.50;40.30
45803;DHT22;31504;51.716;9.184;2022-12-10T15:57:52;19.50;40.30
45803;DHT22;31504;51.716;9.184;2022-12-10T16:00:52;19.40;40.20
45803;DHT22;31504;51.716;9.184;2022-12-10T16:03:52;19.50;40.10
45803;DHT22;31504;51.716;9.184;2022-12-10T16:06:53;19.40;39.90
45803;DHT22;31504;51.716;9.184;2022-12-10T16:09:53;19.40;39.90
45803;DHT22;31504;51.716;9.184;2022-12-10T16:13:02;19.40;39.70
45803;DHT22;31504;51.716;9.184;2022-12-10T16:16:06;19.50;39.60
45803;DHT22;31504;51.716;9.184;2022-12-10T16:19:09;19.50;39.40
45803;DHT22;31504;51.716;9.184;2022-12-10T16:22:10;19.60;39.30
45803;DHT22;31504;51.716;9.184;2022-12-10T16:25:10;19.60;39.10
45803;DHT22;31504;51.716;9.184;2022-12-10T16:28:15;19.60;39.00
45803;DHT22;31504;51.716;9.184;2022-12-10T16:31:17;19.70;39.10
45803;DHT22;31504;51.716;9.184;2022-12-10T16:34:18;19.70;39.10
45803;DHT22;31504;51.716;9.184;2022-12-10T16:37:18;19.70;38.90
45803;DHT22;31504;51.716;9.184;2022-12-10T16:40:19;19.70;38.90
45803;DHT22;31504;51.716;9.184;2022-12-10T16:43:24;19.70;38.90
45803;DHT22;31504;51.716;9.184;2022-12-10T16:46:28;19.70;38.90
45803;DHT22;31504;51.716;9.184;2022-12-10T16:49:28;19.70;38.80
45803;DHT22;31504;51.716;9.184;2022-12-10T16:52:29;19.60;38.70
45803;DHT22;31504;51.716;9.184;2022-12-10T16:55:29;19.60;38.70
45803;DHT22;31504;51.716;9.184;2022-12-10T16:58:29;19.70;38.70
45803;DHT22;31504;51.716;9.184;2022-12-10T17:01:30;19.60;38.70
45803;DHT22;31504;51.716;9.184;2022-12-10T17:04:31;19.60;38.60
45803;DHT22;31504;51.716;9.184;2022-12-10T17:07:31;19.60;38.90
45803;DHT22;31504;51.716;9.184;2022-12-10T17:10:31;19.60;38.80
45803;DHT22;31504;51.716;9.184;2022-12-10T17:13:51;19.60;38.70
45803;DHT22;31504;51.716;9.184;2022-12-10T17:16:52;19.60;38.80
45803;DHT22;31504;51.716;9.184;2022-12-10T17:19:53;19.60;39.10
45803;DHT22;31504;51.716;9.184;2022-12-10T17:22:54;19.70;39.00
45803;DHT22;31504;51.716;9.184;2022-12-10T17:25:54;19.70;39.00
45803;DHT22;31504;51.716;9.184;2022-12-10T17:29:04;19.70;39.00
45803;DHT22;31504;51.716;9.184;2022-12-10T17:32:05;19.70;39.00
45803;DHT22;31504;51.716;9.184;2022-12-10T17:35:06;19.60;39.00
45803;DHT22;31504;51.716;9.184;2022-12-10T17:38:16;19.60;39.10
45803;DHT22;31504;51.716;9.184;2022-12-10T17:41:17;19.60;39.10
45803;DHT22;31504;51.716;9.184;2022-12-10T17:44:18;19.70;39.20
45803;DHT22;31504;51.716;9.184;2022-12-10T17:47:20;19.70;39.20
45803;DHT22;31504;51.716;9.184;2022-12-10T17:50:26;19.70;39.30
45803;DHT22;31504;51.716;9.184;2022-12-10T17:53:29;19.60;39.10
45803;DHT22;31504;51.716;9.184;2022-12-10T17:56:29;19.60;39.20
45803;DHT22;31504;51.716;9.184;2022-12-10T17:59:30;19.60;39.20
45803;DHT22;31504;51.716;9.184;2022-12-10T18:02:32;19.60;39.20
45803;DHT22;31504;51.716;9.184;2022-12-10T18:05:32;19.60;39.10
45803;DHT22;31504;51.716;9.184;2022-12-10T18:08:33;19.70;39.20
45803;DHT22;31504;51.716;9.184;2022-12-10T18:11:34;19.70;39.20
45803;DHT22;31504;51.716;9.184;2022-12-10T18:14:35;19.70;39.40
45803;DHT22;31504;51.716;9.184;2022-12-10T18:17:35;19.70;39.70
45803;DHT22;31504;51.716;9.184;2022-12-10T18:20:37;19.70;39.80
45803;DHT22;31504;51.716;9.184;2022-12-10T18:23:38;19.80;40.10
45803;DHT22;31504;51.716;9.184;2022-12-10T18:26:38;19.80;40.30
45803;DHT22;31504;51.716;9.184;2022-12-10T18:29:39;19.70;40.30
45803;DHT22;31504;51.716;9.184;2022-12-10T18:32:40;19.70;40.40
45803;DHT22;31504;51.716;9.184;2022-12-10T18:35:40;19.70;41.10
45803;DHT22;31504;51.716;9.184;2022-12-10T18:38:42;19.70;40.60
45803;DHT22;31504;51.716;9.184;2022-12-10T18:41:43;19.70;40.80
45803;DHT22;31504;51.716;9.184;2022-12-10T18:44:44;19.70;40.80
45803;DHT22;31504;51.716;9.184;2022-12-10T18:47:45;19.70;40.70
45803;DHT22;31504;51.716;9.184;2022-12-10T18:50:45;19.70;40.70
45803;DHT22;31504;51.716;9.184;2022-12-10T18:53:46;19.80;40.70
45803;DHT22;31504;51.716;9.184;2022-12-10T18:56:46;19.80;40.70
45803;DHT22;31504;51.716;9.184;2022-12-10T18:59:47;19.80;40.70
45803;DHT22;31504;51.716;9.184;2022-12-10T19:02:47;19.80;40.70
45803;DHT22;31504;51.716;9.184;2022-12-10T19:05:48;19.80;40.70
45803;DHT22;31504;51.716;9.184;2022-12-10T19:08:48;19.80;40.70
45803;DHT22;31504;51.716;9.184;2022-12-10T19:11:49;19.80;40.80
45803;DHT22;31504;51.716;9.184;2022-12-10T19:14:51;19.80;40.80
45803;DHT22;31504;51.716;9.184;2022-12-10T19:17:51;19.80;40.70
45803;DHT22;31504;51.716;9.184;2022-12-10T19:20:52;19.80;40.60
45803;DHT22;31504;51.716;9.184;2022-12-10T19:23:52;19.80;40.70
45803;DHT22;31504;51.716;9.184;2022-12-10T19:26:53;19.80;40.60
45803;DHT22;31504;51.716;9.184;2022-12-10T19:29:53;19.80;41.30
45803;DHT22;31504;51.716;9.184;2022-12-10T19:32:54;19.80;40.70
45803;DHT22;31504;51.716;9.184;2022-12-10T19:35:54;19.80;40.80
45803;DHT22;31504;51.716;9.184;2022-12-10T19:38:55;19.80;40.90
45803;DHT22;31504;51.716;9.184;2022-12-10T19:41:56;19.80;41.00
45803;DHT22;31504;51.716;9.184;2022-12-10T19:44:56;19.80;40.90
45803;DHT22;31504;51.716;9.184;2022-12-10T19:47:58;19.80;40.90
45803;DHT22;31504;51.716;9.184;2022-12-10T19:50:58;19.80;40.80
45803;DHT22;31504;51.716;9.184;2022-12-10T19:53:59;19.80;40.80
45803;DHT22;31504;51.716;9.184;2022-12-10T19:56:59;19.90;40.70
45803;DHT22;31504;51.716;9.184;2022-12-10T20:00:00;19.90;40.60
45803;DHT22;31504;51.716;9.184;2022-12-10T20:03:01;19.80;40.60
45803;DHT22;31504;51.716;9.184;2022-12-10T20:06:01;19.90;40.50
45803;DHT22;31504;51.716;9.184;2022-12-10T20:09:03;19.80;40.40
45803;DHT22;31504;51.716;9.184;2022-12-10T20:12:04;19.80;40.30
45803;DHT22;31504;51.716;9.184;2022-12-10T20:15:04;19.90;40.50
45803;DHT22;31504;51.716;9.184;2022-12-10T20:18:05;19.80;40.40
45803;DHT22;31504;51.716;9.184;2022-12-10T20:21:05;19.80;40.30
45803;DHT22;31504;51.716;9.184;2022-12-10T20:24:06;19.80;40.40
45803;DHT22;31504;51.716;9.184;2022-12-10T20:27:09;19.80;40.40
45803;DHT22;31504;51.716;9.184;2022-12-10T20:30:16;19.80;40.40
45803;DHT22;31504;51.716;9.184;2022-12-10T20:33:17;19.80;40.50
45803;DHT22;31504;51.716;9.184;2022-12-10T20:36:22;19.80;40.50
45803;DHT22;31504;51.716;9.184;2022-12-10T20:39:25;19.80;40.50
45803;DHT22;31504;51.716;9.184;2022-12-10T20:42:25;19.80;40.50
45803;DHT22;31504;51.716;9.184;2022-12-10T20:45:26;19.80;40.50
45803;DHT22;31504;51.716;9.184;2022-12-10T20:48:26;19.80;40.50
45803;DHT22;31504;51.716;9.184;2022-12-10T20:51:27;19.80;40.50
45803;DHT22;31504;51.716;9.184;2022-12-10T20:54:27;19.80;40.60
45803;DHT22;31504;51.716;9.184;2022-12-10T20:57:28;19.80;40.50
45803;DHT22;31504;51.716;9.184;2022-12-10T21:00:28;19.70;40.30
45803;DHT22;31504;51.716;9.184;2022-12-10T21:03:29;19.70;40.10
45803;DHT22;31504;51.716;9.184;2022-12-10T21:06:29;19.80;39.90